Current Weather



TAF Data Links

METAR Data Links

Latest METAR/TAF Data


Available data for KAUS from the past 2 hours
AUSTIN, TX
Metar
KAUS 191753Z 20008G17KT 10SM FEW055 FEW200 SCT250 35/21 A2991 RMK AO2 SLP116 T03500206 10350 20244 58011 $

17:53 UTC

Wind: 200° 8kt

Visibility: 10 SM

Sky: FEW 5500 ft

Temp: 35 deg C / 95 deg F

Dewpoint: 21 deg C / 69.8 deg F

Pressure: 29.91 inHg

TAF
KAUS 191720Z 1918/2024 16012KT P6SM FEW060 BKN250 FM200700 19007KT P6SM SCT012 BKN200 FM201200 18008KT P6SM BKN020 FM201500 20008KT P6SM FEW050 BKN250


Available data for KEDC from the past 2 hours
AUSTIN EXEC, TX
Metar
KEDC 191755Z AUTO 20007KT 10SM CLR 33/21 A2993 RMK AO2

17:55 UTC

Wind: 200° 7kt

Visibility: 10 SM

Sky:

Temp: 33 deg C / 91.4 deg F

Dewpoint: 21 deg C / 69.8 deg F

Pressure: 29.93 inHg



Available data for KRYW from the past 2 hours
LAGO VISTA, TX
Metar
KRYW 191755Z AUTO 18007KT 130V210 10SM CLR 33/19 A2995 RMK AO2 T03330186 10337 20245

17:55 UTC

Wind: 180° 7kt

Visibility: 10 SM

Sky:

Temp: 33 deg C / 91.4 deg F

Dewpoint: 19 deg C / 66.2 deg F

Pressure: 29.95 inHg